»·PEaware :: N4657 KAPV-KSNA

N4657 :: KAPV-KSNA

FLIGHT INFORMATION

Flight Status: Arrived
Operator: Privately registered:
United States
More flights under this callsign
Pilot: Daniel P. (20187)
Aircraft: PILATUS PC-12 EAGLE
(PC12)
More flights by this aircraft type
Origin: KAPV Apple Valley
United States
Destination: KSNA John Wayne-Orange Co
United States
More flights between these airports :: More routes between these airports
Route: +EXCON1 EXCON APLES V442 PDZ PDZ270 RNDAL V363 POXKU V8 SLI
File this flight plan on PilotEdge
Remarks:
Altitude:
(Current/Filed)
9,000ft
Speed:
(Current/Filed)
200kts
Departed: 06-Oct-18 03:18 PM
Arrived: 06-Oct-18 03:55 PM
Distance/Time
Traveled:
64nm/0:36
Distance/Time
To Go:
Arrived

Flight Plot

Page will automatically refresh every two minutes.

Flight plan parsing failed; only flown route is shown


Map Options




Map Legend


Flown Route
Filed Route
Departure Airport
Arrival Airport
Navaid (VOR, NDB)
Fix

Horizontal Profiles

Position Reports

Time Latitude Longitude Heading Altitude Ground
Speed
06-Oct-18 14:54 34.573108 -117.189180 210 3066ft 0kts
06-Oct-18 14:55 34.573108 -117.189180 210 3066ft 0kts
06-Oct-18 14:56 34.573108 -117.189180 210 3066ft 0kts
06-Oct-18 14:57 34.573108 -117.189180 210 3066ft 0kts
06-Oct-18 14:58 34.573108 -117.189180 210 3066ft 0kts
06-Oct-18 14:59 34.573108 -117.189180 211 3066ft 0kts
06-Oct-18 15:00 34.573108 -117.189180 211 3066ft 0kts
06-Oct-18 15:01 34.573108 -117.189180 211 3066ft 0kts
06-Oct-18 15:02 34.573108 -117.189180 211 3066ft 0kts
06-Oct-18 15:03 34.573108 -117.189180 211 3066ft 0kts
06-Oct-18 15:04 34.573108 -117.189180 211 3066ft 0kts
06-Oct-18 15:05 34.573108 -117.189180 211 3066ft 0kts
06-Oct-18 15:06 34.573108 -117.189180 211 3066ft 0kts
06-Oct-18 15:07 34.573108 -117.189180 211 3066ft 0kts
06-Oct-18 15:08 34.573108 -117.189180 211 3066ft 0kts
06-Oct-18 15:09 34.573108 -117.189180 211 3066ft 0kts
06-Oct-18 15:10 34.573108 -117.189180 211 3066ft 0kts
06-Oct-18 15:11 34.572458 -117.189555 271 3066ft 0kts
06-Oct-18 15:12 34.572429 -117.189695 260 3066ft 0kts
06-Oct-18 15:13 34.571003 -117.189661 165 3066ft 10kts
06-Oct-18 15:14 34.570205 -117.187256 90 3066ft 15kts
06-Oct-18 15:15 34.570209 -117.182246 89 3066ft 14kts
06-Oct-18 15:16 34.569973 -117.180473 182 3066ft 0kts
06-Oct-18 15:17 34.569973 -117.180473 182 3066ft 0kts
06-Oct-18 15:18 34.569973 -117.180473 182 3066ft 0kts
06-Oct-18 15:19 34.569560 -117.180688 270 3066ft 3kts
06-Oct-18 15:20 34.571889 -117.200776 308 3985ft 108kts
06-Oct-18 15:21 34.605714 -117.185868 38 5817ft 181kts
06-Oct-18 15:22 34.658287 -117.182946 353 7657ft 205kts
06-Oct-18 15:23 34.716252 -117.186655 20 9020ft 239kts
06-Oct-18 15:24 34.734604 -117.104963 82 9010ft 274kts
06-Oct-18 15:25 34.742827 -117.013431 80 8970ft 275kts
06-Oct-18 15:26 34.752075 -116.921229 80 8929ft 276kts
06-Oct-18 15:27 34.715885 -116.859530 196 8902ft 254kts
06-Oct-18 15:28 34.687236 -116.924716 260 8956ft 231kts
06-Oct-18 15:29 34.658522 -116.994679 236 8995ft 237kts
06-Oct-18 15:30 34.616093 -117.056053 233 9019ft 239kts
06-Oct-18 15:31 34.572397 -117.116113 233 9014ft 240kts
06-Oct-18 15:32 34.529608 -117.174582 193 9032ft 255kts
06-Oct-18 15:33 34.464029 -117.200725 211 9013ft 248kts
06-Oct-18 15:34 34.402190 -117.238219 212 9011ft 248kts
06-Oct-18 15:35 34.341369 -117.275121 211 9012ft 249kts
06-Oct-18 15:36 34.279877 -117.312340 210 9012ft 249kts
06-Oct-18 15:37 34.222510 -117.346982 210 9011ft 250kts
06-Oct-18 15:38 34.163175 -117.382774 210 8751ft 239kts
06-Oct-18 15:39 34.110621 -117.414377 209 8131ft 246kts
06-Oct-18 15:40 34.062402 -117.443351 209 7606ft 259kts
06-Oct-18 15:41 34.015041 -117.471735 209 7080ft 253kts
06-Oct-18 15:42 33.962245 -117.503396 209 6485ft 249kts
06-Oct-18 15:43 33.926973 -117.559033 281 5989ft 226kts
06-Oct-18 15:44 33.940602 -117.629774 283 5984ft 213kts
06-Oct-18 15:45 33.954413 -117.692916 283 5988ft 211kts
06-Oct-18 15:46 33.967337 -117.751218 283 5797ft 208kts
06-Oct-18 15:47 33.940996 -117.785459 178 5216ft 206kts
06-Oct-18 15:48 33.887054 -117.783012 181 4552ft 204kts
06-Oct-18 15:49 33.833732 -117.780472 152 3985ft 200kts
06-Oct-18 15:50 33.812015 -117.734690 44 3994ft 198kts
06-Oct-18 15:51 33.859926 -117.713135 332 3986ft 184kts
06-Oct-18 15:52 33.851909 -117.756148 208 3982ft 172kts
06-Oct-18 15:53 33.808117 -117.783017 209 3502ft 190kts
06-Oct-18 15:54 33.762015 -117.814790 203 2919ft 192kts
06-Oct-18 15:55 33.719391 -117.841900 205 1743ft 167kts
06-Oct-18 15:56 33.684645 -117.863140 206 146ft 106kts
06-Oct-18 15:57 33.674162 -117.870644 294 60ft 0kts
06-Oct-18 15:58 33.675354 -117.871358 44 60ft 0kts
06-Oct-18 15:59 33.675354 -117.871358 43 60ft 0kts
06-Oct-18 16:00 33.675354 -117.871358 43 60ft 0kts
06-Oct-18 16:01 33.675354 -117.871358 43 60ft 0kts
06-Oct-18 16:02 33.675354 -117.871358 43 60ft 0kts
06-Oct-18 16:03 33.675354 -117.871358 43 60ft 0kts
06-Oct-18 16:04 33.675354 -117.871358 43 60ft 0kts
06-Oct-18 16:05 33.675354 -117.871358 43 60ft 0kts
06-Oct-18 16:06 33.675354 -117.871358 43 60ft 0kts
06-Oct-18 16:07 33.675354 -117.871358 43 60ft 0kts
06-Oct-18 16:08 33.675354 -117.871358 43 60ft 0kts
06-Oct-18 16:09 33.675354 -117.871358 43 60ft 0kts

Navigation Log

Ident Type
Flight plan parsing failed, navigation log unavailable